CheckWX is a tool to help pilots better visualize weather data.  It is not intended as a substitute for an official pre-flight weather briefing.

06:03:27 UTC

KHII METAR
Lake Havasu City Airport
Lake Havasu City, Arizona, USA
Current

28 mins ago

KHII 270535Z AUTO 16013KT 10SM FEW110 20/02 A2976 RMK AO2
Observed
May-27 @ 05:35 UTC
Wind
  • 160° at 13 KTS
Visibility
10 SM
Flight Rules
VFR
Cloud Levels
  • Few at 11,000' AGL
Temperature
20°C / 68°F
Dewpoint
C / 36°F
Humidity
30%
Altimeter
29.76" Hg
Pressure
1007.82 hPa
Previous

48 mins ago

KHII 270515Z AUTO 16014G19KT 10SM FEW100 21/03 A2975 RMK AO2
Observed
May-27 @ 05:15 UTC
Wind
  • 160° at 14 KTS
  • Gusting to 19 KTS
Visibility
10 SM
Flight Rules
VFR
Cloud Levels
  • Few at 10,000' AGL
Temperature
21°C / 70°F
Dewpoint
C / 37°F
Humidity
31%
Altimeter
29.75" Hg
Pressure
1007.42 hPa
Previous

1 hour ago

KHII 270455Z AUTO 18010KT 10SM BKN100 22/03 A2976 RMK AO2
Observed
May-27 @ 04:55 UTC
Wind
  • 180° at 10 KTS
Visibility
10 SM
Flight Rules
VFR
Cloud Levels
  • Broken at 10,000' AGL
Temperature
22°C / 72°F
Dewpoint
C / 37°F
Humidity
29%
Altimeter
29.76" Hg
Pressure
1007.82 hPa